createdAt,value
2018-12-06T00:00:13.808Z,3.87
2018-12-06T00:02:42.016Z,4.43
2018-12-06T00:05:10.286Z,4.20
2018-12-06T00:07:38.537Z,3.87
2018-12-06T00:10:06.777Z,4.60
2018-12-06T00:12:35.012Z,5.03
2018-12-06T00:15:42.034Z,4.07
2018-12-06T00:18:10.308Z,4.73
2018-12-06T00:20:38.522Z,4.27
2018-12-06T00:23:06.743Z,4.80
2018-12-06T00:25:35.008Z,3.90
2018-12-06T00:28:03.252Z,4.27
2018-12-06T00:30:50.905Z,4.47
2018-12-06T00:33:19.157Z,4.57
2018-12-06T00:35:47.410Z,4.23
2018-12-06T00:38:15.643Z,4.30
2018-12-06T00:40:43.884Z,4.60
2018-12-06T00:43:12.129Z,4.43
2018-12-06T00:45:40.373Z,4.60
2018-12-06T00:48:08.638Z,4.37
2018-12-06T00:50:36.895Z,5.17
2018-12-06T00:53:05.124Z,5.20
2018-12-06T00:55:33.376Z,4.73
2018-12-06T00:58:01.725Z,4.30
2018-12-06T01:00:29.962Z,4.77
2018-12-06T01:02:58.179Z,4.97
2018-12-06T01:05:26.442Z,4.27
2018-12-06T01:07:54.670Z,4.87
2018-12-06T01:10:22.911Z,4.60
2018-12-06T01:12:51.123Z,4.63
2018-12-06T01:15:19.357Z,5.13
2018-12-06T01:17:47.583Z,4.13
2018-12-06T01:20:15.843Z,5.00
2018-12-06T01:22:44.070Z,3.97
2018-12-06T01:25:12.316Z,4.70
2018-12-06T01:27:40.530Z,4.40
2018-12-06T01:30:08.796Z,4.03
2018-12-06T01:32:37.047Z,4.00
2018-12-06T01:35:05.627Z,4.63
2018-12-06T01:37:33.871Z,4.97
2018-12-06T01:40:02.097Z,5.30
2018-12-06T01:42:30.362Z,4.80
2018-12-06T01:44:58.577Z,4.83
2018-12-06T01:47:26.827Z,5.17
2018-12-06T01:49:55.069Z,5.10
2018-12-06T01:52:23.331Z,3.77
2018-12-06T01:54:51.555Z,4.97
2018-12-06T01:57:19.808Z,4.67
2018-12-06T01:59:48.048Z,4.27
2018-12-06T02:02:16.296Z,4.20
2018-12-06T02:04:44.513Z,5.03
2018-12-06T02:07:12.752Z,4.67
2018-12-06T02:09:41.044Z,4.63
2018-12-06T02:12:09.339Z,4.40
2018-12-06T02:14:37.617Z,3.90
2018-12-06T02:17:05.861Z,4.17
2018-12-06T02:19:34.081Z,4.50
2018-12-06T02:22:02.317Z,3.90
2018-12-06T02:24:30.553Z,4.47
2018-12-06T02:26:58.801Z,4.83
2018-12-06T02:29:46.111Z,4.77
2018-12-06T02:32:14.345Z,4.40
2018-12-06T02:34:42.601Z,5.30
2018-12-06T02:37:10.871Z,4.43
2018-12-06T02:39:39.068Z,4.20
2018-12-06T02:42:07.303Z,4.63
2018-12-06T02:44:35.550Z,4.33
2018-12-06T02:47:03.775Z,4.90
2018-12-06T02:49:32.027Z,4.03
2018-12-06T02:52:00.248Z,4.57
2018-12-06T02:54:28.504Z,4.63
2018-12-06T02:56:56.755Z,4.43
2018-12-06T02:59:24.975Z,4.27
2018-12-06T03:01:53.307Z,4.53
2018-12-06T03:04:21.548Z,4.33
2018-12-06T03:06:49.762Z,4.40
2018-12-06T03:09:18.014Z,5.00
2018-12-06T03:11:46.254Z,3.60
2018-12-06T03:14:14.524Z,3.93
2018-12-06T03:16:42.764Z,5.00
2018-12-06T03:19:11.016Z,5.23
2018-12-06T03:21:39.235Z,5.20
2018-12-06T03:24:07.493Z,4.13
2018-12-06T03:26:35.712Z,3.73
2018-12-06T03:29:03.970Z,3.80
2018-12-06T03:31:32.199Z,3.97
2018-12-06T03:34:00.497Z,4.33
2018-12-06T03:36:28.856Z,4.40
2018-12-06T03:38:57.083Z,4.30
2018-12-06T03:41:25.303Z,4.77
2018-12-06T03:43:53.597Z,3.50
2018-12-06T03:46:21.812Z,4.37
2018-12-06T03:48:50.047Z,4.63
2018-12-06T03:51:18.290Z,4.87
2018-12-06T03:53:46.526Z,4.03
2018-12-06T03:56:14.787Z,4.37
2018-12-06T03:58:43.014Z,4.50
2018-12-06T04:01:11.254Z,4.27
2018-12-06T04:03:39.468Z,4.17
2018-12-06T04:06:07.709Z,4.83
2018-12-06T04:08:35.923Z,3.73
2018-12-06T04:11:04.172Z,4.70
2018-12-06T04:13:32.384Z,3.73
2018-12-06T04:16:00.624Z,3.67
2018-12-06T04:18:28.842Z,3.87
2018-12-06T04:20:57.087Z,3.37
2018-12-06T04:23:25.365Z,3.77
2018-12-06T04:25:53.665Z,4.13
2018-12-06T04:28:21.873Z,3.40
2018-12-06T04:30:50.137Z,4.03
2018-12-06T04:33:18.367Z,4.07
2018-12-06T04:35:46.638Z,3.80
2018-12-06T04:38:14.855Z,3.93
2018-12-06T04:40:43.105Z,3.13
2018-12-06T04:43:11.346Z,3.20
2018-12-06T04:45:39.578Z,3.80
2018-12-06T04:48:07.829Z,3.63
2018-12-06T04:50:36.082Z,3.10
2018-12-06T04:53:04.313Z,3.83
2018-12-06T04:55:32.559Z,3.80
2018-12-06T04:58:00.787Z,3.67
2018-12-06T05:00:29.012Z,3.83
2018-12-06T05:02:57.257Z,3.63
2018-12-06T05:05:25.464Z,4.17
2018-12-06T05:07:53.711Z,3.97
2018-12-06T05:10:29.319Z,2.87
2018-12-06T05:12:57.551Z,3.70
2018-12-06T05:15:25.766Z,4.07
2018-12-06T05:17:54.002Z,3.83
2018-12-06T05:20:22.223Z,3.10
2018-12-06T05:22:50.451Z,3.87
2018-12-06T05:25:18.686Z,3.40
2018-12-06T05:27:46.944Z,3.83
2018-12-06T05:30:15.167Z,3.80
2018-12-06T05:32:43.419Z,3.90
2018-12-06T05:35:11.665Z,3.57
2018-12-06T05:37:39.889Z,2.77
2018-12-06T05:40:08.184Z,3.80
2018-12-06T05:42:36.425Z,3.23
2018-12-06T05:45:04.978Z,3.57
2018-12-06T05:47:33.258Z,3.87
2018-12-06T05:50:01.477Z,3.37
2018-12-06T05:52:29.703Z,3.83
2018-12-06T05:54:57.920Z,3.30
2018-12-06T05:57:26.143Z,3.57
2018-12-06T05:59:54.385Z,3.53
2018-12-06T06:02:22.610Z,3.67
2018-12-06T06:04:50.849Z,3.90
2018-12-06T06:07:19.100Z,4.07
2018-12-06T06:09:47.343Z,3.87
2018-12-06T06:12:15.577Z,3.63
2018-12-06T06:14:43.836Z,3.67
2018-12-06T06:17:12.063Z,3.37
2018-12-06T06:19:40.300Z,3.57
2018-12-06T06:22:08.529Z,3.23
2018-12-06T06:24:37.359Z,3.37
2018-12-06T06:27:05.617Z,3.37
2018-12-06T06:29:33.865Z,4.03
2018-12-06T06:32:02.089Z,3.23
2018-12-06T06:34:30.348Z,3.47
2018-12-06T06:36:58.579Z,3.17
2018-12-06T06:39:26.824Z,3.80
2018-12-06T06:41:55.052Z,3.20
2018-12-06T06:44:23.299Z,3.80
2018-12-06T06:46:51.537Z,3.60
2018-12-06T06:49:19.770Z,3.07
2018-12-06T06:51:48.003Z,3.80
2018-12-06T06:54:16.241Z,3.53
2018-12-06T06:56:44.579Z,2.83
2018-12-06T06:59:12.734Z,3.87
2018-12-06T07:01:41.013Z,3.27
2018-12-06T07:04:09.233Z,3.20
2018-12-06T07:06:37.481Z,3.50
2018-12-06T07:09:07.399Z,3.83
2018-12-06T07:11:36.031Z,3.27
2018-12-06T07:14:04.484Z,3.63
2018-12-06T07:16:32.718Z,3.47
2018-12-06T07:19:00.966Z,3.40
2018-12-06T07:21:29.213Z,3.73
2018-12-06T07:23:57.433Z,3.90
2018-12-06T07:26:25.694Z,3.77
2018-12-06T07:28:53.911Z,3.90
2018-12-06T07:31:22.144Z,3.27
2018-12-06T07:33:50.393Z,3.33
2018-12-06T07:36:18.669Z,3.20
2018-12-06T07:38:46.923Z,3.50
2018-12-06T07:41:15.187Z,3.47
2018-12-06T07:43:43.401Z,4.27
2018-12-06T07:46:12.078Z,3.40
2018-12-06T07:48:40.294Z,3.20
2018-12-06T07:51:08.564Z,3.67
2018-12-06T07:53:36.792Z,3.73
2018-12-06T07:56:05.048Z,4.30
2018-12-06T07:58:33.259Z,4.10
2018-12-06T08:01:01.503Z,3.13
2018-12-06T08:03:29.722Z,3.37
2018-12-06T08:05:57.974Z,3.93
2018-12-06T08:08:26.196Z,3.77
2018-12-06T08:10:54.450Z,3.63
2018-12-06T08:13:22.752Z,3.87
2018-12-06T08:15:50.972Z,3.60
2018-12-06T08:18:19.226Z,3.57
2018-12-06T08:20:47.456Z,3.27
2018-12-06T08:23:15.700Z,4.27
2018-12-06T08:25:43.931Z,3.57
2018-12-06T08:28:12.201Z,3.57
2018-12-06T08:30:42.060Z,3.37
2018-12-06T08:33:08.677Z,3.83
2018-12-06T08:35:36.899Z,3.77
2018-12-06T08:38:05.128Z,3.87
2018-12-06T08:40:33.363Z,3.47
2018-12-06T08:43:01.627Z,3.20
2018-12-06T08:45:29.830Z,3.53
2018-12-06T08:47:58.079Z,3.63
2018-12-06T08:50:26.284Z,2.83
2018-12-06T08:53:14.067Z,3.60
2018-12-06T08:55:42.318Z,2.90
2018-12-06T08:58:10.652Z,3.87
2018-12-06T09:00:38.778Z,3.30
2018-12-06T09:03:07.045Z,3.30
2018-12-06T09:05:35.263Z,4.20
2018-12-06T09:08:03.523Z,3.07
2018-12-06T09:10:31.752Z,3.20
2018-12-06T09:12:59.976Z,2.63
2018-12-06T09:15:28.202Z,3.27
2018-12-06T09:17:56.431Z,3.10
2018-12-06T09:20:24.672Z,3.70
2018-12-06T09:22:52.927Z,3.47
2018-12-06T09:25:21.578Z,2.93
2018-12-06T09:27:49.375Z,3.00
2018-12-06T09:30:17.626Z,3.17
2018-12-06T09:32:45.830Z,2.93
2018-12-06T09:35:14.080Z,2.50
2018-12-06T09:37:42.281Z,3.13
2018-12-06T09:40:10.520Z,2.83
2018-12-06T09:42:38.754Z,3.33
2018-12-06T09:45:08.140Z,3.85
2018-12-06T09:47:36.450Z,2.93
2018-12-06T09:50:05.688Z,3.23
2018-12-06T09:52:33.890Z,3.17
2018-12-06T09:55:02.171Z,2.80
2018-12-06T09:57:30.538Z,3.03
2018-12-06T09:59:58.777Z,2.77
2018-12-06T10:02:27.002Z,3.07
2018-12-06T10:04:55.274Z,2.60
2018-12-06T10:07:23.573Z,3.20
2018-12-06T10:09:52.142Z,3.00
2018-12-06T10:12:20.382Z,3.47
2018-12-06T10:14:48.622Z,3.20
2018-12-06T10:17:16.869Z,3.47
2018-12-06T10:19:45.142Z,3.43
2018-12-06T10:22:13.382Z,2.53
2018-12-06T10:24:41.646Z,3.23
2018-12-06T10:27:09.892Z,3.33
2018-12-06T10:29:38.198Z,2.90
2018-12-06T10:32:06.420Z,2.77
2018-12-06T10:34:34.632Z,2.53
2018-12-06T10:37:02.876Z,3.10
2018-12-06T10:39:31.154Z,2.87
2018-12-06T10:41:59.448Z,3.00
2018-12-06T10:44:31.363Z,2.80
2018-12-06T10:46:59.616Z,3.40
2018-12-06T10:49:27.864Z,2.70
2018-12-06T10:51:56.121Z,2.97
2018-12-06T10:54:24.389Z,2.63
2018-12-06T10:56:52.675Z,2.57
2018-12-06T10:59:20.919Z,3.10
2018-12-06T11:02:08.270Z,3.13
2018-12-06T11:04:36.786Z,2.50
2018-12-06T11:07:06.668Z,3.13
2018-12-06T11:09:34.994Z,3.53
2018-12-06T11:12:03.220Z,3.50
2018-12-06T11:14:31.552Z,3.27
2018-12-06T11:16:59.708Z,3.77
2018-12-06T11:19:27.954Z,3.90
2018-12-06T11:21:56.230Z,2.93
2018-12-06T11:24:24.481Z,3.90
2018-12-06T11:26:52.803Z,4.40
2018-12-06T11:29:20.957Z,4.23
2018-12-06T11:31:49.234Z,3.47
2018-12-06T11:34:17.550Z,3.47
2018-12-06T11:36:45.712Z,3.77
2018-12-06T11:39:13.928Z,3.63
2018-12-06T11:41:43.236Z,3.00
2018-12-06T11:44:10.415Z,3.43
2018-12-06T11:46:38.737Z,4.23
2018-12-06T11:49:06.936Z,2.80
2018-12-06T11:51:35.158Z,3.30
2018-12-06T11:54:03.427Z,3.37
2018-12-06T11:56:31.744Z,3.57
2018-12-06T11:58:59.934Z,3.43
2018-12-06T12:01:28.173Z,3.73
2018-12-06T12:03:56.629Z,3.17
2018-12-06T12:06:24.903Z,3.93
2018-12-06T12:09:12.576Z,3.97
2018-12-06T12:11:40.877Z,3.57
2018-12-06T12:14:09.151Z,3.60
2018-12-06T12:16:37.361Z,3.83
2018-12-06T12:19:05.690Z,3.70
2018-12-06T12:21:33.881Z,4.27
2018-12-06T12:24:02.161Z,3.47
2018-12-06T12:26:30.437Z,4.10
2018-12-06T12:28:58.687Z,3.57
2018-12-06T12:31:26.941Z,3.67
2018-12-06T12:33:55.196Z,4.43
2018-12-06T12:36:23.439Z,3.97
2018-12-06T12:38:51.700Z,3.93
2018-12-06T12:41:19.923Z,3.83
2018-12-06T12:43:48.170Z,4.37
2018-12-06T12:46:17.145Z,3.87
2018-12-06T12:48:44.824Z,3.70
2018-12-06T12:51:13.096Z,3.70
2018-12-06T12:53:41.372Z,3.97
2018-12-06T12:56:09.586Z,4.23
2018-12-06T12:58:37.882Z,3.97
2018-12-06T13:01:06.117Z,4.03
2018-12-06T13:03:34.344Z,3.93
2018-12-06T13:06:02.588Z,3.87
2018-12-06T13:08:30.820Z,3.80
2018-12-06T13:10:59.315Z,3.57
2018-12-06T13:13:27.535Z,3.90
2018-12-06T13:15:55.812Z,3.83
2018-12-06T13:18:24.040Z,4.37
2018-12-06T13:20:52.383Z,4.87
2018-12-06T13:23:20.546Z,4.00
2018-12-06T13:25:48.813Z,3.60
2018-12-06T13:28:17.078Z,4.00
2018-12-06T13:30:45.355Z,4.43
2018-12-06T13:33:13.598Z,4.30
2018-12-06T13:35:41.865Z,3.80
2018-12-06T13:38:10.083Z,4.37
2018-12-06T13:40:38.332Z,4.40
2018-12-06T13:43:06.548Z,4.60
2018-12-06T13:45:34.781Z,4.50
2018-12-06T13:48:03.010Z,4.43
2018-12-06T13:50:31.306Z,4.47
2018-12-06T13:52:59.626Z,3.90
2018-12-06T13:55:27.819Z,4.57
2018-12-06T13:57:56.101Z,3.53
2018-12-06T14:00:24.452Z,4.20
2018-12-06T14:02:52.532Z,4.53
2018-12-06T14:05:20.759Z,5.70
2018-12-06T14:07:49.011Z,4.43
2018-12-06T14:10:17.270Z,4.27
2018-12-06T14:12:45.534Z,4.23
2018-12-06T14:15:13.750Z,5.33
2018-12-06T14:17:42.000Z,5.07
2018-12-06T14:20:10.659Z,6.17
2018-12-06T14:22:38.899Z,5.40
2018-12-06T14:25:07.122Z,5.80
2018-12-06T14:27:35.418Z,6.57
2018-12-06T14:30:03.662Z,6.43
2018-12-06T14:32:31.913Z,5.23
2018-12-06T14:35:00.204Z,6.10
2018-12-06T14:37:28.475Z,5.60
2018-12-06T14:39:56.712Z,5.63
2018-12-06T14:42:24.985Z,5.97
2018-12-06T14:44:53.215Z,5.23
2018-12-06T14:47:21.461Z,5.30
2018-12-06T14:49:49.688Z,5.57
2018-12-06T14:52:17.960Z,5.20
2018-12-06T14:54:46.159Z,6.93
2018-12-06T14:57:14.413Z,5.13
2018-12-06T14:59:42.630Z,5.80
2018-12-06T15:02:10.882Z,5.30
2018-12-06T15:04:39.113Z,5.47
2018-12-06T15:07:07.384Z,4.57
2018-12-06T15:09:35.596Z,5.10
2018-12-06T15:12:03.837Z,4.47
2018-12-06T15:14:32.096Z,4.13
2018-12-06T15:17:00.336Z,5.13
2018-12-06T15:19:28.555Z,4.97
2018-12-06T15:21:56.771Z,4.53
2018-12-06T15:24:25.001Z,4.63
2018-12-06T15:26:53.222Z,4.50
2018-12-06T15:29:21.472Z,4.83
2018-12-06T15:31:49.695Z,8.87
2018-12-06T15:34:17.977Z,15.40
2018-12-06T15:36:46.224Z,11.80
2018-12-06T15:39:14.453Z,5.77
2018-12-06T15:41:42.680Z,5.37
2018-12-06T15:44:10.924Z,4.63
2018-12-06T15:46:39.158Z,5.03
2018-12-06T15:49:11.653Z,6.13
2018-12-06T15:51:38.586Z,5.57
2018-12-06T15:54:06.830Z,5.13
2018-12-06T15:56:35.075Z,5.57
2018-12-06T15:59:03.329Z,4.67
2018-12-06T16:01:31.559Z,5.93
2018-12-06T16:03:59.885Z,5.10
2018-12-06T16:06:28.032Z,6.13
2018-12-06T16:08:56.279Z,5.77
2018-12-06T16:11:24.507Z,6.17
2018-12-06T16:13:52.788Z,5.83
2018-12-06T16:16:21.011Z,6.17
2018-12-06T16:18:49.223Z,6.03
2018-12-06T16:21:17.463Z,6.20
2018-12-06T16:23:45.682Z,6.70
2018-12-06T16:26:13.951Z,8.47
2018-12-06T16:28:42.186Z,9.47
2018-12-06T16:31:10.463Z,6.07
2018-12-06T16:33:38.721Z,5.87
2018-12-06T16:36:06.966Z,6.20
2018-12-06T16:38:35.195Z,6.17
2018-12-06T16:41:03.438Z,5.73
2018-12-06T16:43:31.673Z,6.27
2018-12-06T16:45:59.925Z,5.83
2018-12-06T16:48:28.169Z,6.70
2018-12-06T16:50:56.428Z,15.80
2018-12-06T16:53:24.652Z,8.23
2018-12-06T16:55:52.981Z,8.50
2018-12-06T16:58:21.201Z,8.10
2018-12-06T17:00:49.450Z,7.27
2018-12-06T17:03:17.677Z,6.90
2018-12-06T17:05:45.926Z,7.40
2018-12-06T17:08:14.158Z,7.97
2018-12-06T17:10:42.406Z,7.47
2018-12-06T17:13:10.656Z,7.10
2018-12-06T17:15:38.906Z,7.03
2018-12-06T17:18:07.174Z,6.47
2018-12-06T17:20:35.384Z,7.27
2018-12-06T17:23:03.613Z,7.60
2018-12-06T17:25:31.860Z,7.90
2018-12-06T17:28:00.072Z,7.53
2018-12-06T17:30:28.322Z,7.53
2018-12-06T17:32:56.558Z,8.50
2018-12-06T17:35:24.816Z,7.80
2018-12-06T17:37:53.058Z,7.73
2018-12-06T17:40:21.287Z,7.57
2018-12-06T17:42:49.515Z,7.87
2018-12-06T17:45:17.741Z,9.73
2018-12-06T17:47:45.982Z,9.37
2018-12-06T17:50:14.196Z,8.40
2018-12-06T17:52:42.497Z,7.57
2018-12-06T17:55:10.774Z,7.33
2018-12-06T17:57:39.027Z,8.40
2018-12-06T18:00:08.934Z,8.03
2018-12-06T18:02:37.166Z,7.63
2018-12-06T18:05:05.657Z,7.50
2018-12-06T18:07:33.904Z,7.97
2018-12-06T18:10:02.144Z,9.10
2018-12-06T18:12:30.397Z,7.80
2018-12-06T18:14:58.957Z,7.83
2018-12-06T18:17:26.982Z,11.47
2018-12-06T18:19:55.207Z,8.40
2018-12-06T18:22:23.462Z,8.03
2018-12-06T18:24:51.681Z,8.90
2018-12-06T18:27:19.961Z,7.57
2018-12-06T18:29:48.206Z,8.10
2018-12-06T18:32:16.463Z,8.13
2018-12-06T18:34:46.108Z,7.57
2018-12-06T18:37:14.368Z,8.33
2018-12-06T18:39:42.604Z,6.70
2018-12-06T18:42:10.852Z,7.23
2018-12-06T18:44:39.093Z,8.33
2018-12-06T18:47:07.326Z,7.00
2018-12-06T18:49:35.939Z,7.13
2018-12-06T18:52:04.187Z,7.87
2018-12-06T18:54:32.436Z,18.00
2018-12-06T18:57:00.681Z,10.00
2018-12-06T18:59:28.937Z,8.20
2018-12-06T19:01:57.162Z,8.40
2018-12-06T19:04:25.427Z,7.13
2018-12-06T19:06:53.642Z,7.37
2018-12-06T19:09:21.891Z,8.73
2018-12-06T19:11:50.124Z,8.13
2018-12-06T19:14:21.912Z,8.27
2018-12-06T19:16:46.651Z,8.07
2018-12-06T19:19:14.898Z,8.47
2018-12-06T19:21:43.123Z,7.47
2018-12-06T19:24:11.405Z,8.10
2018-12-06T19:26:39.643Z,8.17
2018-12-06T19:29:07.900Z,8.33
2018-12-06T19:31:36.136Z,8.07
2018-12-06T19:34:04.436Z,8.07
2018-12-06T19:36:32.663Z,7.80
2018-12-06T19:39:00.905Z,7.70
2018-12-06T19:41:29.139Z,8.17
2018-12-06T19:43:57.390Z,8.13
2018-12-06T19:46:25.605Z,8.40
2018-12-06T19:48:53.863Z,8.37
2018-12-06T19:51:22.135Z,7.77
2018-12-06T19:53:50.351Z,7.27
2018-12-06T19:56:18.593Z,7.90
2018-12-06T19:58:46.838Z,7.87
2018-12-06T20:01:15.088Z,8.53
2018-12-06T20:03:43.318Z,7.23
2018-12-06T20:06:11.566Z,7.33
2018-12-06T20:08:39.821Z,8.30
2018-12-06T20:11:08.088Z,8.03
2018-12-06T20:13:36.327Z,6.87
2018-12-06T20:16:04.679Z,7.77
2018-12-06T20:18:32.906Z,8.53
2018-12-06T20:21:01.160Z,8.77
2018-12-06T20:23:29.531Z,8.53
2018-12-06T20:25:57.889Z,8.07
2018-12-06T20:28:26.835Z,8.10
2018-12-06T20:30:54.592Z,8.93
2018-12-06T20:33:22.864Z,8.77
2018-12-06T20:35:51.126Z,8.87
2018-12-06T20:38:19.390Z,8.47
2018-12-06T20:40:47.619Z,8.53
2018-12-06T20:43:15.866Z,8.70
2018-12-06T20:45:44.129Z,9.60
2018-12-06T20:48:12.381Z,9.73
2018-12-06T20:50:40.609Z,11.10
2018-12-06T20:53:08.889Z,9.17
2018-12-06T20:55:37.109Z,10.13
2018-12-06T20:58:05.353Z,11.13
2018-12-06T21:00:33.589Z,10.03
2018-12-06T21:03:01.854Z,10.97
2018-12-06T21:05:30.099Z,12.87
2018-12-06T21:07:58.376Z,11.43
2018-12-06T21:10:26.646Z,10.80
2018-12-06T21:12:54.913Z,10.90
2018-12-06T21:15:23.138Z,10.10
2018-12-06T21:17:51.414Z,10.20
2018-12-06T21:20:19.689Z,10.00
2018-12-06T21:22:47.963Z,9.40
2018-12-06T21:25:16.209Z,9.70
2018-12-06T21:27:44.480Z,11.27
2018-12-06T21:30:12.726Z,9.47
2018-12-06T21:32:40.994Z,9.87
2018-12-06T21:35:09.261Z,10.03
2018-12-06T21:37:37.525Z,10.00
2018-12-06T21:40:06.607Z,9.43
2018-12-06T21:42:34.865Z,9.73
2018-12-06T21:45:03.109Z,9.97
2018-12-06T21:47:31.346Z,10.27
2018-12-06T21:49:59.622Z,10.13
2018-12-06T21:52:27.865Z,11.20
2018-12-06T21:54:56.116Z,10.37
2018-12-06T21:57:24.350Z,10.63
2018-12-06T21:59:52.613Z,10.00
2018-12-06T22:05:13.414Z,11.17
2018-12-06T22:07:41.652Z,11.70
2018-12-06T22:10:09.929Z,11.77
2018-12-06T22:12:38.168Z,11.33
2018-12-06T22:15:06.424Z,11.57
2018-12-06T22:17:34.637Z,10.60
2018-12-06T22:20:02.915Z,10.23
2018-12-06T22:22:31.191Z,11.00
2018-12-06T22:24:59.562Z,11.37
2018-12-06T22:27:27.712Z,10.50
2018-12-06T22:29:55.974Z,14.57
2018-12-06T22:32:24.259Z,12.03
2018-12-06T22:34:52.501Z,11.23
2018-12-06T22:37:20.730Z,11.23
2018-12-06T22:39:48.993Z,10.07
2018-12-06T22:42:17.236Z,11.63
2018-12-06T22:44:45.498Z,11.70
2018-12-06T22:47:13.825Z,10.97
2018-12-06T22:49:42.093Z,11.13
2018-12-06T22:52:10.306Z,10.10
2018-12-06T22:54:38.557Z,10.53
2018-12-06T22:57:06.816Z,10.37
2018-12-06T22:59:35.065Z,9.87
2018-12-06T23:02:03.305Z,10.43
2018-12-06T23:04:31.580Z,9.83
2018-12-06T23:06:59.862Z,10.20
2018-12-06T23:09:28.127Z,8.77
2018-12-06T23:11:56.338Z,10.27
2018-12-06T23:14:24.611Z,10.33
2018-12-06T23:16:52.843Z,11.73
2018-12-06T23:19:21.081Z,8.90
2018-12-06T23:21:49.292Z,9.07
2018-12-06T23:24:17.568Z,7.93
2018-12-06T23:26:45.794Z,8.87
2018-12-06T23:29:14.022Z,9.47
2018-12-06T23:31:42.256Z,8.80
2018-12-06T23:34:10.491Z,9.07
2018-12-06T23:36:38.740Z,8.30
2018-12-06T23:39:08.183Z,9.57
2018-12-06T23:41:36.424Z,10.80
2018-12-06T23:44:04.667Z,11.67
2018-12-06T23:46:33.009Z,8.87
2018-12-06T23:49:01.257Z,8.07
2018-12-06T23:51:48.916Z,8.13
2018-12-06T23:54:17.225Z,8.23
2018-12-06T23:56:45.470Z,7.90
2018-12-06T23:59:13.744Z,9.10
